createdAt,value
2018-09-22T00:00:04.725Z,3.30
2018-09-22T00:02:38.228Z,3.45
2018-09-22T00:05:10.944Z,3.50
2018-09-22T00:07:45.092Z,3.10
2018-09-22T00:10:17.983Z,3.97
2018-09-22T00:12:51.592Z,3.58
2018-09-22T00:15:25.524Z,3.00
2018-09-22T00:17:58.948Z,3.00
2018-09-22T00:20:31.591Z,2.63
2018-09-22T00:23:05.036Z,3.40
2018-09-22T00:25:38.577Z,2.93
2018-09-22T00:28:12.524Z,3.53
2018-09-22T00:30:45.416Z,2.70
2018-09-22T00:33:17.894Z,2.70
2018-09-22T00:35:50.500Z,3.00
2018-09-22T00:38:25.164Z,3.20
2018-09-22T00:40:58.309Z,2.83
2018-09-22T00:43:30.844Z,2.80
2018-09-22T00:46:04.009Z,3.03
2018-09-22T00:48:37.480Z,2.63
2018-09-22T00:51:10.177Z,2.90
2018-09-22T00:53:45.090Z,3.42
2018-09-22T00:56:17.605Z,2.80
2018-09-22T00:58:50.191Z,2.63
2018-09-22T01:01:24.873Z,3.10
2018-09-22T01:03:57.551Z,3.60
2018-09-22T01:06:31.100Z,2.43
2018-09-22T01:09:07.951Z,2.67
2018-09-22T01:11:41.250Z,2.73
2018-09-22T01:14:13.916Z,3.30
2018-09-22T01:16:46.913Z,2.73
2018-09-22T01:19:19.701Z,2.97
2018-09-22T01:21:52.505Z,2.77
2018-09-22T01:24:27.233Z,2.90
2018-09-22T01:26:59.886Z,3.40
2018-09-22T01:29:32.512Z,3.67
2018-09-22T01:32:05.719Z,3.23
2018-09-22T01:34:38.140Z,2.77
2018-09-22T01:37:10.780Z,3.00
2018-09-22T01:39:44.591Z,2.92
2018-09-22T01:42:17.169Z,3.33
2018-09-22T01:44:52.026Z,3.17
2018-09-22T01:47:27.177Z,3.27
2018-09-22T01:49:59.790Z,2.60
2018-09-22T01:52:33.019Z,3.23
2018-09-22T01:55:06.551Z,2.60
2018-09-22T01:57:39.256Z,2.77
2018-09-22T02:00:15.652Z,3.30
2018-09-22T02:02:48.210Z,3.47
2018-09-22T02:05:20.796Z,3.17
2018-09-22T02:07:54.963Z,2.43
2018-09-22T02:10:27.620Z,2.90
2018-09-22T02:13:07.592Z,2.50
2018-09-22T02:15:40.968Z,2.40
2018-09-22T02:18:13.549Z,2.80
2018-09-22T02:20:46.303Z,2.90
2018-09-22T02:23:18.909Z,2.67
2018-09-22T02:25:52.028Z,3.20
2018-09-22T02:28:27.942Z,3.00
2018-09-22T02:31:02.139Z,2.47
2018-09-22T02:33:34.738Z,3.77
2018-09-22T02:36:07.520Z,3.30
2018-09-22T02:38:40.092Z,2.97
2018-09-22T02:41:13.397Z,2.70
2018-09-22T02:43:46.316Z,2.97
2018-09-22T02:46:19.960Z,3.03
2018-09-22T02:48:53.020Z,3.40
2018-09-22T02:51:26.726Z,2.93
2018-09-22T02:54:00.576Z,3.40
2018-09-22T02:56:33.391Z,3.10
2018-09-22T02:59:07.752Z,2.70
2018-09-22T03:01:40.223Z,2.80
2018-09-22T03:04:14.660Z,2.90
2018-09-22T03:06:47.853Z,3.03
2018-09-22T03:09:20.363Z,3.03
2018-09-22T03:11:53.134Z,3.40
2018-09-22T03:14:26.249Z,2.90
2018-09-22T03:16:59.535Z,2.63
2018-09-22T03:19:32.687Z,3.33
2018-09-22T03:22:06.876Z,2.80
2018-09-22T03:24:39.473Z,3.17
2018-09-22T03:27:12.728Z,3.07
2018-09-22T03:29:45.552Z,3.47
2018-09-22T03:32:18.213Z,2.57
2018-09-22T03:34:51.564Z,3.00
2018-09-22T03:37:24.441Z,3.07
2018-09-22T03:39:57.980Z,3.17
2018-09-22T03:42:30.703Z,3.60
2018-09-22T03:45:05.484Z,3.20
2018-09-22T03:47:38.140Z,2.80
2018-09-22T03:50:10.660Z,2.80
2018-09-22T03:52:43.561Z,3.43
2018-09-22T03:55:17.738Z,3.40
2018-09-22T03:57:51.536Z,3.20
2018-09-22T04:00:26.041Z,2.80
2018-09-22T04:02:58.555Z,3.28
2018-09-22T04:05:31.320Z,3.53
2018-09-22T04:08:04.282Z,3.43
2018-09-22T04:10:36.882Z,2.80
2018-09-22T04:13:10.294Z,3.17
2018-09-22T04:15:43.252Z,3.07
2018-09-22T04:18:15.825Z,2.43
2018-09-22T04:20:49.312Z,2.27
2018-09-22T04:23:23.177Z,3.17
2018-09-22T04:25:55.781Z,2.67
2018-09-22T04:28:28.334Z,2.90
2018-09-22T04:31:03.260Z,3.37
2018-09-22T04:33:36.045Z,3.27
2018-09-22T04:36:09.261Z,3.50
2018-09-22T04:38:42.417Z,3.42
2018-09-22T04:41:15.511Z,2.87
2018-09-22T04:43:48.160Z,2.90
2018-09-22T04:46:21.421Z,2.73
2018-09-22T04:48:54.628Z,3.33
2018-09-22T04:51:28.486Z,3.00
2018-09-22T04:54:01.650Z,3.47
2018-09-22T04:56:34.616Z,3.23
2018-09-22T04:59:07.977Z,3.03
2018-09-22T05:01:42.152Z,2.90
2018-09-22T05:04:14.741Z,3.30
2018-09-22T05:06:48.293Z,2.70
2018-09-22T05:09:21.177Z,3.10
2018-09-22T05:11:53.836Z,3.33
2018-09-22T05:14:26.526Z,3.10
2018-09-22T05:17:00.597Z,3.10
2018-09-22T05:19:33.235Z,3.10
2018-09-22T05:22:06.280Z,3.70
2018-09-22T05:24:39.281Z,2.77
2018-09-22T05:27:13.497Z,2.70
2018-09-22T05:29:46.152Z,3.37
2018-09-22T05:32:22.480Z,2.70
2018-09-22T05:34:55.924Z,3.20
2018-09-22T05:37:29.552Z,4.05
2018-09-22T05:40:03.066Z,2.97
2018-09-22T05:42:35.757Z,3.07
2018-09-22T05:45:09.310Z,3.37
2018-09-22T05:47:44.069Z,2.93
2018-09-22T05:50:17.738Z,3.50
2018-09-22T05:52:51.788Z,3.10
2018-09-22T05:55:25.381Z,3.70
2018-09-22T05:57:58.608Z,3.57
2018-09-22T06:00:37.360Z,3.30
2018-09-22T06:03:10.390Z,3.20
2018-09-22T06:05:43.830Z,3.50
2018-09-22T06:08:18.419Z,2.60
2018-09-22T06:10:51.045Z,3.00
2018-09-22T06:13:25.232Z,3.20
2018-09-22T06:15:58.884Z,2.83
2018-09-22T06:18:31.666Z,3.10
2018-09-22T06:21:04.800Z,2.80
2018-09-22T06:23:38.700Z,2.67
2018-09-22T06:26:11.240Z,2.63
2018-09-22T06:28:44.314Z,3.17
2018-09-22T06:31:16.794Z,3.30
2018-09-22T06:33:49.959Z,3.17
2018-09-22T06:36:22.925Z,3.87
2018-09-22T06:38:56.048Z,3.40
2018-09-22T06:41:28.525Z,2.93
2018-09-22T06:44:04.752Z,3.47
2018-09-22T06:46:38.169Z,3.13
2018-09-22T06:49:10.998Z,3.03
2018-09-22T06:51:44.552Z,2.80
2018-09-22T06:54:18.931Z,3.28
2018-09-22T06:56:52.253Z,3.20
2018-09-22T06:59:25.312Z,2.77
2018-09-22T07:01:58.628Z,4.47
2018-09-22T07:04:32.040Z,2.93
2018-09-22T07:07:05.368Z,3.10
2018-09-22T07:09:38.148Z,3.30
2018-09-22T07:12:10.722Z,2.80
2018-09-22T07:14:43.759Z,2.90
2018-09-22T07:17:16.216Z,2.90
2018-09-22T07:19:49.721Z,3.10
2018-09-22T07:22:29.876Z,2.93
2018-09-22T07:25:03.386Z,2.90
2018-09-22T07:27:36.860Z,3.43
2018-09-22T07:30:10.852Z,2.67
2018-09-22T07:32:44.900Z,3.00
2018-09-22T07:35:17.869Z,2.73
2018-09-22T07:37:52.808Z,3.20
2018-09-22T07:40:25.257Z,3.17
2018-09-22T07:42:57.803Z,2.73
2018-09-22T07:45:31.593Z,2.47
2018-09-22T07:48:06.340Z,2.70
2018-09-22T07:50:39.405Z,3.40
2018-09-22T07:53:16.072Z,3.27
2018-09-22T07:55:48.684Z,3.20
2018-09-22T07:58:21.347Z,3.07
2018-09-22T08:00:55.389Z,3.40
2018-09-22T08:03:29.289Z,2.73
2018-09-22T08:06:05.641Z,3.12
2018-09-22T08:08:39.148Z,2.60
2018-09-22T08:11:12.358Z,3.33
2018-09-22T08:13:46.221Z,2.50
2018-09-22T08:16:20.257Z,3.08
2018-09-22T08:18:55.597Z,3.45
2018-09-22T08:21:30.335Z,2.90
2018-09-22T08:24:02.992Z,2.60
2018-09-22T08:26:37.476Z,2.87
2018-09-22T08:29:12.231Z,2.43
2018-09-22T08:31:48.019Z,2.63
2018-09-22T08:34:23.838Z,2.70
2018-09-22T08:36:56.637Z,2.10
2018-09-22T08:39:30.387Z,2.95
2018-09-22T08:42:03.070Z,2.77
2018-09-22T08:44:35.693Z,2.87
2018-09-22T08:47:08.624Z,2.67
2018-09-22T08:49:41.487Z,3.27
2018-09-22T08:52:14.579Z,2.72
2018-09-22T08:54:47.248Z,2.93
2018-09-22T08:57:20.232Z,2.60
2018-09-22T08:59:53.526Z,2.20
2018-09-22T09:02:30.398Z,2.23
2018-09-22T09:05:03.957Z,2.77
2018-09-22T09:07:38.368Z,2.40
2018-09-22T09:10:13.508Z,2.70
2018-09-22T09:12:50.511Z,2.37
2018-09-22T09:15:24.680Z,2.70
2018-09-22T09:17:58.379Z,2.20
2018-09-22T09:20:31.798Z,2.07
2018-09-22T09:23:06.216Z,2.20
2018-09-22T09:25:39.771Z,2.00
2018-09-22T09:28:14.449Z,2.30
2018-09-22T09:30:51.445Z,2.25
2018-09-22T09:33:25.110Z,2.27
2018-09-22T09:35:59.943Z,1.80
2018-09-22T09:38:36.556Z,2.00
2018-09-22T09:41:10.320Z,2.60
2018-09-22T09:43:43.027Z,1.50
2018-09-22T09:46:17.747Z,2.13
2018-09-22T09:48:53.084Z,1.80
2018-09-22T09:51:25.285Z,2.43
2018-09-22T09:54:00.922Z,2.17
2018-09-22T09:56:33.546Z,2.23
2018-09-22T09:59:07.503Z,2.50
2018-09-22T10:01:42.053Z,2.47
2018-09-22T10:04:17.222Z,2.30
2018-09-22T10:06:50.524Z,2.63
2018-09-22T10:09:26.224Z,2.67
2018-09-22T10:11:59.684Z,2.23
2018-09-22T10:14:33.104Z,1.80
2018-09-22T10:17:09.010Z,1.87
2018-09-22T10:19:43.379Z,2.00
2018-09-22T10:22:19.071Z,2.03
2018-09-22T10:24:53.590Z,1.57
2018-09-22T10:27:27.896Z,1.90
2018-09-22T10:30:06.740Z,1.77
2018-09-22T10:32:48.334Z,1.60
2018-09-22T10:35:23.581Z,1.67
2018-09-22T10:37:57.529Z,1.53
2018-09-22T10:40:31.634Z,1.98
2018-09-22T10:43:04.949Z,1.60
2018-09-22T10:45:37.592Z,1.83
2018-09-22T10:48:10.548Z,1.43
2018-09-22T10:50:44.956Z,1.83
2018-09-22T10:53:17.570Z,1.85
2018-09-22T10:55:51.261Z,1.98
2018-09-22T10:58:24.179Z,1.67
2018-09-22T11:00:58.737Z,1.53
2018-09-22T11:03:32.292Z,1.60
2018-09-22T11:06:04.937Z,2.00
2018-09-22T11:08:38.594Z,1.95
2018-09-22T11:11:11.312Z,2.50
2018-09-22T11:13:44.637Z,2.10
2018-09-22T11:16:20.957Z,1.60
2018-09-22T11:18:54.690Z,1.57
2018-09-22T11:21:31.288Z,1.70
2018-09-22T11:24:04.687Z,2.30
2018-09-22T11:26:38.378Z,1.50
2018-09-22T11:29:10.993Z,2.07
2018-09-22T11:31:43.712Z,1.83
2018-09-22T11:34:18.137Z,2.07
2018-09-22T11:36:51.828Z,2.20
2018-09-22T11:39:24.641Z,2.33
2018-09-22T11:41:58.279Z,1.70
2018-09-22T11:44:30.887Z,2.00
2018-09-22T11:47:04.495Z,1.73
2018-09-22T11:49:37.716Z,1.40
2018-09-22T11:52:14.876Z,2.10
2018-09-22T11:54:47.516Z,1.90
2018-09-22T11:57:21.327Z,2.03
2018-09-22T11:59:58.554Z,1.93
2018-09-22T12:02:38.393Z,1.60
2018-09-22T12:05:12.122Z,1.90
2018-09-22T12:07:45.937Z,1.70
2018-09-22T12:10:19.865Z,2.10
2018-09-22T12:12:55.088Z,1.70
2018-09-22T12:15:29.581Z,1.63
2018-09-22T12:18:02.917Z,1.73
2018-09-22T12:20:36.326Z,1.47
2018-09-22T12:23:09.066Z,1.73
2018-09-22T12:25:43.397Z,2.10
2018-09-22T12:28:16.826Z,1.80
2018-09-22T12:30:51.662Z,2.03
2018-09-22T12:33:25.619Z,1.90
2018-09-22T12:36:00.266Z,1.50
2018-09-22T12:38:34.939Z,1.90
2018-09-22T12:41:08.812Z,1.80
2018-09-22T12:43:42.341Z,2.00
2018-09-22T12:46:16.125Z,1.40
2018-09-22T12:48:50.731Z,1.53
2018-09-22T12:51:25.073Z,1.90
2018-09-22T12:54:00.471Z,1.83
2018-09-22T12:56:34.993Z,1.92
2018-09-22T12:59:07.828Z,1.60
2018-09-22T13:01:43.750Z,1.77
2018-09-22T13:04:16.260Z,1.87
2018-09-22T13:06:50.213Z,2.00
2018-09-22T13:09:23.698Z,1.80
2018-09-22T13:11:56.973Z,1.83
2018-09-22T13:14:30.064Z,1.93
2018-09-22T13:17:04.352Z,1.70
2018-09-22T13:19:39.176Z,1.77
2018-09-22T13:22:11.940Z,1.80
2018-09-22T13:24:46.989Z,1.57
2018-09-22T13:27:19.822Z,1.63
2018-09-22T13:29:52.480Z,1.60
2018-09-22T13:32:25.143Z,1.60
2018-09-22T13:34:57.804Z,1.70
2018-09-22T13:37:33.628Z,1.43
2018-09-22T13:40:08.617Z,1.77
2018-09-22T13:42:41.377Z,1.60
2018-09-22T13:45:16.165Z,2.47
2018-09-22T13:48:09.357Z,2.00
2018-09-22T13:50:53.235Z,2.00
2018-09-22T13:53:30.643Z,1.87
2018-09-22T13:56:07.630Z,1.93
2018-09-22T13:58:45.505Z,1.57
2018-09-22T14:01:24.660Z,1.37
2018-09-22T14:04:11.501Z,1.00
2018-09-22T14:06:46.572Z,1.60
2018-09-22T14:09:23.612Z,1.17
2018-09-22T14:11:58.567Z,1.08
2018-09-22T14:14:32.877Z,1.00
2018-09-22T14:17:08.512Z,1.10
2018-09-22T14:19:42.829Z,1.30
2018-09-22T14:22:17.020Z,1.03
2018-09-22T14:24:51.420Z,0.93
2018-09-22T14:27:26.710Z,1.30
2018-09-22T14:30:04.251Z,1.90
2018-09-22T14:32:39.932Z,2.20
2018-09-22T14:35:17.937Z,2.33
2018-09-22T14:37:51.056Z,2.60
2018-09-22T14:40:26.876Z,2.30
2018-09-22T14:43:00.236Z,2.20
2018-09-22T14:45:32.905Z,1.93
2018-09-22T14:48:05.662Z,1.40
2018-09-22T14:50:42.717Z,1.53
2018-09-22T14:53:17.540Z,1.33
2018-09-22T14:55:51.588Z,1.80
2018-09-22T14:58:24.540Z,1.60
2018-09-22T15:00:59.753Z,2.07
2018-09-22T15:03:35.260Z,1.30
2018-09-22T15:06:10.620Z,1.50
2018-09-22T15:08:43.454Z,1.83
2018-09-22T15:11:17.060Z,1.40
2018-09-22T15:13:51.378Z,1.33
2018-09-22T15:16:24.576Z,1.00
2018-09-22T15:18:57.132Z,1.50
2018-09-22T15:21:31.923Z,1.73
2018-09-22T15:24:05.346Z,1.60
2018-09-22T15:26:39.552Z,1.87
2018-09-22T15:29:14.032Z,1.70
2018-09-22T15:31:46.644Z,1.83
2018-09-22T15:34:19.174Z,1.77
2018-09-22T15:36:52.892Z,1.80
2018-09-22T15:39:28.382Z,1.80
2018-09-22T15:42:02.297Z,2.03
2018-09-22T15:44:35.902Z,1.90
2018-09-22T15:47:09.951Z,2.10
2018-09-22T15:49:43.294Z,2.10
2018-09-22T15:52:16.915Z,1.90
2018-09-22T15:54:50.373Z,2.30
2018-09-22T15:57:23.741Z,2.00
2018-09-22T15:59:59.484Z,1.97
2018-09-22T16:02:39.718Z,1.90
2018-09-22T16:05:13.277Z,2.67
2018-09-22T16:07:48.463Z,2.33
2018-09-22T16:10:24.518Z,2.33
2018-09-22T16:12:59.464Z,2.17
2018-09-22T16:15:32.288Z,1.90
2018-09-22T16:18:07.881Z,2.27
2018-09-22T16:20:43.977Z,2.20
2018-09-22T16:23:17.072Z,2.47
2018-09-22T16:25:51.052Z,2.80
2018-09-22T16:28:26.857Z,2.20
2018-09-22T16:30:59.326Z,2.07
2018-09-22T16:33:32.240Z,2.17
2018-09-22T16:36:04.848Z,2.17
2018-09-22T16:38:40.140Z,1.70
2018-09-22T16:41:13.032Z,2.30
2018-09-22T16:43:45.703Z,1.87
2018-09-22T16:46:18.226Z,2.13
2018-09-22T16:48:52.393Z,2.00
2018-09-22T16:51:27.172Z,1.83
2018-09-22T16:54:00.520Z,2.03
2018-09-22T16:56:34.768Z,2.03
2018-09-22T16:59:08.280Z,1.90
2018-09-22T17:01:41.729Z,1.97
2018-09-22T17:04:15.825Z,2.10
2018-09-22T17:06:49.852Z,2.07
2018-09-22T17:09:30.214Z,2.43
2018-09-22T17:12:04.592Z,2.00
2018-09-22T17:14:39.036Z,2.20
2018-09-22T17:17:17.001Z,1.90
2018-09-22T17:19:53.617Z,1.80
2018-09-22T17:22:28.688Z,1.77
2018-09-22T17:25:22.652Z,1.90
2018-09-22T17:28:00.812Z,2.10
2018-09-22T17:30:34.399Z,1.83
2018-09-22T17:33:12.015Z,2.00
2018-09-22T17:35:50.069Z,2.10
2018-09-22T17:38:23.413Z,2.10
2018-09-22T17:41:02.558Z,1.97
2018-09-22T17:43:35.407Z,2.07
2018-09-22T17:46:11.901Z,2.87
2018-09-22T17:48:44.915Z,2.43
2018-09-22T17:51:22.681Z,3.27
2018-09-22T17:53:57.089Z,2.28
2018-09-22T17:56:33.786Z,2.55
2018-09-22T17:59:07.222Z,2.30
2018-09-22T18:01:40.299Z,2.43
2018-09-22T18:04:19.599Z,2.65
2018-09-22T18:06:52.709Z,2.50
2018-09-22T18:09:27.275Z,2.50
2018-09-22T18:12:00.328Z,3.97
2018-09-22T18:14:33.973Z,4.70
2018-09-22T18:17:11.757Z,4.03
2018-09-22T18:19:44.570Z,4.63
2018-09-22T18:22:18.742Z,4.40
2018-09-22T18:24:53.705Z,3.00
2018-09-22T18:27:28.077Z,3.40
2018-09-22T18:30:05.371Z,3.20
2018-09-22T18:32:39.495Z,3.10
2018-09-22T18:35:15.378Z,3.20
2018-09-22T18:37:49.295Z,3.10
2018-09-22T18:40:23.629Z,3.33
2018-09-22T18:42:57.960Z,2.90
2018-09-22T18:45:32.509Z,3.60
2018-09-22T18:48:08.552Z,3.67
2018-09-22T18:50:42.730Z,3.50
2018-09-22T18:53:16.952Z,3.30
2018-09-22T18:55:49.556Z,3.40
2018-09-22T18:58:22.281Z,3.53
2018-09-22T19:00:56.494Z,3.53
2018-09-22T19:03:30.157Z,3.50
2018-09-22T19:06:02.771Z,4.60
2018-09-22T19:08:39.743Z,4.50
2018-09-22T19:11:15.419Z,4.10
2018-09-22T19:13:55.737Z,4.50
2018-09-22T19:16:41.938Z,6.17
2018-09-22T19:19:20.253Z,5.20
2018-09-22T19:22:02.264Z,4.97
2018-09-22T19:24:57.505Z,4.73
2018-09-22T19:27:36.427Z,4.97
2018-09-22T19:30:33.654Z,5.77
2018-09-22T19:33:11.750Z,5.90
2018-09-22T19:35:52.069Z,5.90
2018-09-22T19:38:38.356Z,5.30
2018-09-22T19:41:24.976Z,6.20
2018-09-22T19:44:05.945Z,7.15
2018-09-22T19:46:46.666Z,9.07
2018-09-22T19:49:35.102Z,8.97
2018-09-22T19:52:22.498Z,8.33
2018-09-22T19:54:58.093Z,8.00
2018-09-22T19:57:32.666Z,8.77
2018-09-22T20:00:10.472Z,7.80
2018-09-22T20:02:45.493Z,7.80
2018-09-22T20:05:19.621Z,7.93
2018-09-22T20:07:53.421Z,8.67
2018-09-22T20:10:29.172Z,8.33
2018-09-22T20:13:02.798Z,7.83
2018-09-22T20:15:40.514Z,7.67
2018-09-22T20:18:16.363Z,7.00
2018-09-22T20:20:52.080Z,7.10
2018-09-22T20:23:32.945Z,6.40
2018-09-22T20:26:08.996Z,6.30
2018-09-22T20:28:54.678Z,6.43
2018-09-22T20:31:33.371Z,6.72
2018-09-22T20:34:10.426Z,6.47
2018-09-22T20:36:47.687Z,6.33
2018-09-22T20:39:23.630Z,6.27
2018-09-22T20:42:07.232Z,6.47
2018-09-22T20:44:40.449Z,6.60
2018-09-22T20:47:13.882Z,6.00
2018-09-22T20:49:53.801Z,5.93
2018-09-22T20:52:30.848Z,6.40
2018-09-22T20:55:09.403Z,5.70
2018-09-22T20:57:44.923Z,6.07
2018-09-22T21:00:20.625Z,6.60
2018-09-22T21:02:53.952Z,6.33
2018-09-22T21:05:29.948Z,8.23
2018-09-22T21:08:03.283Z,7.57
2018-09-22T21:10:38.140Z,7.50
2018-09-22T21:13:11.608Z,8.27
2018-09-22T21:15:46.972Z,9.20
2018-09-22T21:18:21.859Z,11.68
2018-09-22T21:20:56.910Z,12.60
2018-09-22T21:23:30.643Z,12.67
2018-09-22T21:26:13.750Z,14.02
2018-09-22T21:28:55.904Z,13.00
2018-09-22T21:31:37.402Z,14.80
2018-09-22T21:34:19.968Z,14.50
2018-09-22T21:37:05.305Z,15.17
2018-09-22T21:39:43.274Z,14.73
2018-09-22T21:42:17.196Z,16.50
2018-09-22T21:44:49.958Z,16.30
2018-09-22T21:47:23.599Z,14.87
2018-09-22T21:49:57.040Z,14.73
2018-09-22T21:52:29.600Z,16.07
2018-09-22T21:55:03.201Z,15.30
2018-09-22T21:57:36.789Z,16.43
2018-09-22T22:00:13.923Z,16.67
2018-09-22T22:02:50.241Z,17.83
2018-09-22T22:05:25.215Z,16.25
2018-09-22T22:08:00.423Z,13.90
2018-09-22T22:10:34.566Z,14.77
2018-09-22T22:13:12.629Z,14.87
2018-09-22T22:15:49.289Z,17.80
2018-09-22T22:18:22.126Z,18.90
2018-09-22T22:20:55.922Z,20.90
2018-09-22T22:23:30.539Z,22.47
2018-09-22T22:26:03.993Z,25.05
2018-09-22T22:28:37.140Z,21.50
2018-09-22T22:31:10.321Z,20.03
2018-09-22T22:33:43.261Z,17.60
2018-09-22T22:36:17.601Z,15.70
2018-09-22T22:38:53.741Z,16.87
2018-09-22T22:41:29.225Z,15.03
2018-09-22T22:44:02.444Z,16.10
2018-09-22T22:46:34.884Z,15.13
2018-09-22T22:49:08.399Z,19.00
2018-09-22T22:51:46.464Z,18.57
2018-09-22T22:54:18.921Z,19.40
2018-09-22T22:56:53.337Z,19.70
2018-09-22T22:59:26.219Z,20.17
2018-09-22T23:01:59.738Z,19.60
2018-09-22T23:04:33.409Z,20.73
2018-09-22T23:07:07.276Z,23.67
2018-09-22T23:09:40.546Z,20.67
2018-09-22T23:12:13.964Z,21.00
2018-09-22T23:14:50.595Z,20.60
2018-09-22T23:17:24.676Z,20.03
2018-09-22T23:19:59.322Z,22.50
2018-09-22T23:22:34.167Z,22.53
2018-09-22T23:25:10.500Z,24.93
2018-09-22T23:27:45.012Z,24.50
2018-09-22T23:30:20.328Z,24.97
2018-09-22T23:32:53.616Z,26.77
2018-09-22T23:35:28.558Z,26.23
2018-09-22T23:38:01.653Z,26.17
2018-09-22T23:40:38.141Z,25.07
2018-09-22T23:43:11.118Z,25.47
2018-09-22T23:45:43.958Z,23.33
2018-09-22T23:48:16.529Z,22.47
2018-09-22T23:50:49.191Z,20.27
2018-09-22T23:53:24.327Z,18.83
2018-09-22T23:55:58.605Z,16.97
2018-09-22T23:58:32.704Z,16.10
